Time;durP1;ratioP1;P1;durP2;ratioP2;P2;SDS_P1;SDS_P2;PMS_P1;PMS_P2;Temp;Humidity;BMP_temperature;BMP_pressure;BME280_temperature;BME280_humidity;BME280_pressure;Samples;Min_cycle;Max_cycle;Signal;HPM_P1;HPM_P2
2022/07/02 00:02:11;;;;;;;26.13;9.35;;;;;;;;;;5063885;28;20025;-74
2022/07/02 00:04:42;;;;;;;17.73;7.43;;;;;;;;;;5061738;28;20028;-74
2022/07/02 00:07:08;;;;;;;18.73;7.60;;;;;;;;;;5062447;28;20119;-74
2022/07/02 00:09:34;;;;;;;22.15;8.80;;;;;;;;;;5063794;28;20036;-73
2022/07/02 00:12:01;;;;;;;19.50;8.15;;;;;;;;;;5063979;28;20017;-73
2022/07/02 00:14:27;;;;;;;22.00;7.90;;;;;;;;;;5064395;28;20021;-74
2022/07/02 00:16:57;;;;;;;19.50;7.15;;;;;;;;;;5063235;28;20036;-74
2022/07/02 00:19:23;;;;;;;25.85;8.35;;;;;;;;;;5064580;28;20469;-76
2022/07/02 00:21:50;;;;;;;23.30;7.43;;;;;;;;;;5064236;28;20035;-73
2022/07/02 00:24:16;;;;;;;26.02;7.18;;;;;;;;;;5064442;28;20029;-76
2022/07/02 00:26:46;;;;;;;17.70;6.50;;;;;;;;;;5052512;28;20040;-76
2022/07/02 00:29:35;;;;;;;20.67;6.90;;;;;;;;;;5063122;28;20032;-74
2022/07/02 00:32:01;;;;;;;22.70;6.93;;;;;;;;;;5063990;28;20032;-75
2022/07/02 00:34:29;;;;;;;25.60;7.80;;;;;;;;;;5064000;28;20045;-75
2022/07/02 00:36:56;;;;;;;17.60;7.25;;;;;;;;;;5062188;28;20544;-73
2022/07/02 00:39:22;;;;;;;27.00;7.80;;;;;;;;;;5063052;28;20546;-73
2022/07/02 00:41:49;;;;;;;22.73;7.47;;;;;;;;;;5063862;28;20475;-72
2022/07/02 00:44:15;;;;;;;30.08;7.95;;;;;;;;;;5064242;28;20024;-74
2022/07/02 00:46:42;;;;;;;26.42;8.60;;;;;;;;;;5063938;28;20473;-72
2022/07/02 00:49:09;;;;;;;21.38;7.78;;;;;;;;;;5063333;28;20465;-73
2022/07/02 00:51:35;;;;;;;23.20;8.63;;;;;;;;;;5062626;28;20048;-74
2022/07/02 00:54:02;;;;;;;18.10;7.45;;;;;;;;;;5063753;28;20468;-74
2022/07/02 00:56:28;;;;;;;20.70;8.27;;;;;;;;;;5064277;28;20083;-76
2022/07/02 00:58:54;;;;;;;21.00;8.38;;;;;;;;;;5062111;28;20020;-74
2022/07/02 01:01:20;;;;;;;18.50;7.85;;;;;;;;;;5063647;28;20035;-75
2022/07/02 01:03:48;;;;;;;21.63;8.40;;;;;;;;;;5058921;28;20038;-73
2022/07/02 01:06:14;;;;;;;21.70;8.25;;;;;;;;;;5064010;28;20032;-75
2022/07/02 01:11:26;;;;;;;21.80;8.88;;;;;;;;;;5053611;28;20083;-75
2022/07/02 01:13:55;;;;;;;21.85;7.90;;;;;;;;;;5052551;28;20123;-75
2022/07/02 01:16:21;;;;;;;19.63;7.85;;;;;;;;;;5059640;28;20098;-74
2022/07/02 01:18:47;;;;;;;18.00;7.38;;;;;;;;;;5063233;28;20476;-73
2022/07/02 01:21:13;;;;;;;21.63;7.28;;;;;;;;;;5061860;28;20038;-74
2022/07/02 01:23:39;;;;;;;18.00;7.68;;;;;;;;;;5062908;28;20070;-75
2022/07/02 01:26:06;;;;;;;23.50;7.97;;;;;;;;;;5063372;28;20033;-74
2022/07/02 01:28:32;;;;;;;19.27;6.95;;;;;;;;;;5062805;28;20021;-73
2022/07/02 01:30:58;;;;;;;17.48;6.63;;;;;;;;;;5053029;28;20032;-74
2022/07/02 01:33:25;;;;;;;22.33;7.03;;;;;;;;;;5059782;28;20044;-74
2022/07/02 01:35:51;;;;;;;22.38;7.88;;;;;;;;;;5061064;28;20029;-77
2022/07/02 01:38:17;;;;;;;24.40;7.32;;;;;;;;;;5062776;28;20805;-78
2022/07/02 01:40:43;;;;;;;26.15;7.68;;;;;;;;;;5063711;28;20040;-75
2022/07/02 01:43:10;;;;;;;19.48;7.93;;;;;;;;;;5062502;28;20028;-77
2022/07/02 01:45:36;;;;;;;20.02;7.50;;;;;;;;;;5063025;28;20040;-76
2022/07/02 01:48:02;;;;;;;18.73;8.18;;;;;;;;;;5060600;28;20020;-75
2022/07/02 01:50:28;;;;;;;24.88;8.38;;;;;;;;;;5062599;28;20036;-74
2022/07/02 01:52:57;;;;;;;15.80;8.10;;;;;;;;;;5062771;28;20055;-75
2022/07/02 01:55:24;;;;;;;22.10;8.30;;;;;;;;;;5059335;28;20037;-76
2022/07/02 01:57:51;;;;;;;19.52;9.00;;;;;;;;;;5060615;28;20025;-74
2022/07/02 02:00:17;;;;;;;22.38;9.05;;;;;;;;;;5059040;28;20029;-74
2022/07/02 02:02:43;;;;;;;11.25;7.25;;;;;;;;;;5055911;28;20074;-73
2022/07/02 02:05:09;;;;;;;19.25;7.97;;;;;;;;;;5061913;28;20077;-73
2022/07/02 02:07:35;;;;;;;24.35;8.18;;;;;;;;;;5057625;28;20017;-74
2022/07/02 02:10:02;;;;;;;18.27;9.00;;;;;;;;;;5056315;28;20077;-73
2022/07/02 02:12:28;;;;;;;20.45;9.02;;;;;;;;;;5058322;28;20074;-76
2022/07/02 02:14:54;;;;;;;23.35;8.68;;;;;;;;;;5056271;28;20042;-74
2022/07/02 02:17:20;;;;;;;25.58;8.60;;;;;;;;;;5062297;28;20226;-75
2022/07/02 02:19:46;;;;;;;19.05;8.45;;;;;;;;;;5058915;28;20488;-76
2022/07/02 02:22:12;;;;;;;18.02;8.40;;;;;;;;;;5062164;28;20376;-74
2022/07/02 02:24:39;;;;;;;20.98;8.50;;;;;;;;;;5058516;28;20025;-74
2022/07/02 02:27:05;;;;;;;22.15;9.02;;;;;;;;;;5059247;28;20127;-74
2022/07/02 02:29:31;;;;;;;23.38;9.02;;;;;;;;;;5061779;28;20020;-76
2022/07/02 02:31:57;;;;;;;20.98;9.60;;;;;;;;;;5061801;28;20031;-76
2022/07/02 02:34:23;;;;;;;26.48;9.20;;;;;;;;;;5060570;28;20569;-74
2022/07/02 02:36:49;;;;;;;19.50;8.98;;;;;;;;;;5060511;28;20120;-76
2022/07/02 02:39:15;;;;;;;26.55;9.02;;;;;;;;;;5061596;28;20012;-77
2022/07/02 02:41:41;;;;;;;16.98;9.43;;;;;;;;;;5061863;28;20158;-75
2022/07/02 02:44:08;;;;;;;20.30;8.73;;;;;;;;;;5061811;28;20016;-74
2022/07/02 02:46:34;;;;;;;28.90;9.80;;;;;;;;;;5062354;28;20082;-77
2022/07/02 02:49:00;;;;;;;19.52;8.98;;;;;;;;;;5061840;28;20024;-74
2022/07/02 02:51:26;;;;;;;19.95;8.98;;;;;;;;;;5060307;28;20021;-76
2022/07/02 02:53:53;;;;;;;15.35;8.43;;;;;;;;;;5062198;28;20032;-75
2022/07/02 02:56:19;;;;;;;19.15;9.35;;;;;;;;;;5061617;28;20119;-75
2022/07/02 02:58:45;;;;;;;19.45;9.23;;;;;;;;;;5062136;28;20032;-75
2022/07/02 03:01:11;;;;;;;20.00;9.05;;;;;;;;;;5061640;28;20028;-77
2022/07/02 03:03:38;;;;;;;18.35;8.73;;;;;;;;;;5061610;28;20052;-75
2022/07/02 03:06:04;;;;;;;23.75;9.10;;;;;;;;;;5060270;28;20093;-76
2022/07/02 03:08:30;;;;;;;17.65;9.27;;;;;;;;;;5061637;28;20036;-75
2022/07/02 03:10:56;;;;;;;25.55;9.88;;;;;;;;;;5062119;28;20025;-74
2022/07/02 03:13:22;;;;;;;19.00;8.80;;;;;;;;;;5063220;28;20032;-75
2022/07/02 03:15:48;;;;;;;22.42;9.75;;;;;;;;;;5064704;28;20040;-75
2022/07/02 03:18:15;;;;;;;16.52;8.55;;;;;;;;;;5051123;28;20536;-76
2022/07/02 03:20:41;;;;;;;26.35;9.25;;;;;;;;;;5061191;28;20039;-73
2022/07/02 03:23:07;;;;;;;19.15;9.77;;;;;;;;;;5063452;28;20025;-73
2022/07/02 03:25:33;;;;;;;20.15;9.82;;;;;;;;;;5062876;28;20024;-73
2022/07/02 03:27:59;;;;;;;21.02;10.10;;;;;;;;;;5058827;28;20377;-73
2022/07/02 03:30:26;;;;;;;20.90;9.70;;;;;;;;;;5060834;28;20020;-73
2022/07/02 03:32:52;;;;;;;16.60;9.50;;;;;;;;;;5062989;28;20133;-74
2022/07/02 03:35:18;;;;;;;25.58;10.35;;;;;;;;;;5062980;28;20041;-76
2022/07/02 03:37:44;;;;;;;20.88;9.20;;;;;;;;;;5061679;28;20111;-73
2022/07/02 03:40:11;;;;;;;21.80;9.93;;;;;;;;;;5063061;28;20020;-75
2022/07/02 03:42:37;;;;;;;25.48;9.38;;;;;;;;;;5063111;28;20059;-73
2022/07/02 03:45:03;;;;;;;16.23;9.05;;;;;;;;;;5062985;28;20044;-72
2022/07/02 03:47:29;;;;;;;20.38;9.55;;;;;;;;;;5062983;28;20025;-74
2022/07/02 03:49:56;;;;;;;21.13;10.15;;;;;;;;;;5060597;28;20043;-74
2022/07/02 03:52:22;;;;;;;19.55;9.43;;;;;;;;;;5061298;28;20048;-74
2022/07/02 03:54:48;;;;;;;24.50;9.40;;;;;;;;;;5062084;28;20493;-73
2022/07/02 03:57:14;;;;;;;25.33;10.80;;;;;;;;;;5062006;28;20028;-73
2022/07/02 03:59:40;;;;;;;20.48;9.40;;;;;;;;;;5060961;28;20055;-73
2022/07/02 04:02:06;;;;;;;19.88;10.20;;;;;;;;;;5062299;28;20032;-74
2022/07/02 04:04:32;;;;;;;23.75;10.32;;;;;;;;;;5061864;28;20028;-73
2022/07/02 04:06:59;;;;;;;22.67;10.02;;;;;;;;;;5062313;28;20021;-73
2022/07/02 04:09:25;;;;;;;19.00;10.13;;;;;;;;;;5060755;28;20039;-73
2022/07/02 04:11:51;;;;;;;20.70;9.95;;;;;;;;;;5062108;28;20032;-75
2022/07/02 04:14:17;;;;;;;18.55;9.27;;;;;;;;;;5061930;28;20032;-75
2022/07/02 04:16:43;;;;;;;16.73;9.18;;;;;;;;;;5062151;28;20036;-77
2022/07/02 04:19:09;;;;;;;15.70;8.98;;;;;;;;;;5060684;28;20423;-73
2022/07/02 04:21:35;;;;;;;17.90;10.43;;;;;;;;;;5060334;28;20504;-75
2022/07/02 04:24:01;;;;;;;14.50;9.25;;;;;;;;;;5061566;28;20032;-76
2022/07/02 04:26:27;;;;;;;20.58;9.95;;;;;;;;;;5060947;28;20032;-73
2022/07/02 04:28:54;;;;;;;19.55;8.45;;;;;;;;;;5061933;28;20024;-74
2022/07/02 04:31:20;;;;;;;17.58;9.00;;;;;;;;;;5060410;28;20662;-74
2022/07/02 04:33:46;;;;;;;19.00;9.18;;;;;;;;;;5061675;28;20045;-75
2022/07/02 04:36:12;;;;;;;28.70;10.38;;;;;;;;;;5061831;28;20036;-74
2022/07/02 04:38:38;;;;;;;26.88;11.02;;;;;;;;;;5060892;28;20684;-76
2022/07/02 04:41:04;;;;;;;21.60;11.82;;;;;;;;;;5060856;28;20113;-76
2022/07/02 04:43:30;;;;;;;24.25;10.10;;;;;;;;;;5061601;28;20093;-73
2022/07/02 04:45:56;;;;;;;23.05;10.90;;;;;;;;;;5061168;28;20850;-73
2022/07/02 04:48:23;;;;;;;21.98;10.85;;;;;;;;;;5061206;28;20078;-73
2022/07/02 04:50:49;;;;;;;18.55;11.00;;;;;;;;;;5059919;28;20020;-72
2022/07/02 04:53:15;;;;;;;21.58;11.25;;;;;;;;;;5060263;28;20032;-74
2022/07/02 04:55:41;;;;;;;24.92;10.70;;;;;;;;;;5061231;28;20044;-72
2022/07/02 04:58:07;;;;;;;24.00;11.27;;;;;;;;;;5059839;28;20812;-74
2022/07/02 05:00:33;;;;;;;24.02;10.90;;;;;;;;;;5061048;28;20767;-74
2022/07/02 05:03:00;;;;;;;19.45;9.57;;;;;;;;;;5060947;28;20652;-73
2022/07/02 05:05:26;;;;;;;17.38;9.48;;;;;;;;;;5061208;28;20103;-73
2022/07/02 05:07:52;;;;;;;19.63;10.18;;;;;;;;;;5059323;28;20539;-72
2022/07/02 05:10:18;;;;;;;21.77;10.93;;;;;;;;;;5059054;28;20086;-74
2022/07/02 05:12:44;;;;;;;16.98;9.82;;;;;;;;;;5059402;28;20029;-73
2022/07/02 05:15:11;;;;;;;19.67;9.73;;;;;;;;;;5059044;28;20559;-74
2022/07/02 05:17:37;;;;;;;30.90;10.45;;;;;;;;;;5057760;28;20139;-72
2022/07/02 05:20:03;;;;;;;22.08;10.02;;;;;;;;;;5061188;28;20020;-72
2022/07/02 05:22:29;;;;;;;18.33;9.07;;;;;;;;;;5061486;28;20019;-73
2022/07/02 05:24:55;;;;;;;20.10;9.85;;;;;;;;;;5062052;28;20063;-71
2022/07/02 05:27:21;;;;;;;18.63;10.20;;;;;;;;;;5062873;28;20020;-73
2022/07/02 05:29:48;;;;;;;22.23;10.10;;;;;;;;;;5061673;28;20032;-75
2022/07/02 05:32:14;;;;;;;17.70;8.80;;;;;;;;;;5061501;28;20032;-73
2022/07/02 05:34:40;;;;;;;21.27;9.20;;;;;;;;;;5061768;28;20090;-73
2022/07/02 05:37:06;;;;;;;18.77;8.15;;;;;;;;;;5060607;28;20898;-75
2022/07/02 05:39:32;;;;;;;15.48;8.07;;;;;;;;;;5061467;28;20032;-72
2022/07/02 05:41:58;;;;;;;15.70;8.52;;;;;;;;;;5062228;28;20040;-72
2022/07/02 05:44:24;;;;;;;19.85;9.05;;;;;;;;;;5061717;28;20020;-73
2022/07/02 05:46:51;;;;;;;24.27;9.35;;;;;;;;;;5060729;28;20020;-72
2022/07/02 05:49:17;;;;;;;17.48;9.05;;;;;;;;;;5061862;28;20028;-73
2022/07/02 05:51:43;;;;;;;18.20;8.55;;;;;;;;;;5061650;28;20017;-73
2022/07/02 05:54:09;;;;;;;19.92;9.70;;;;;;;;;;5059129;28;20036;-72
2022/07/02 05:56:35;;;;;;;15.38;8.50;;;;;;;;;;5060686;28;20064;-73
2022/07/02 05:59:01;;;;;;;24.45;8.45;;;;;;;;;;5059457;28;20040;-75
2022/07/02 06:01:27;;;;;;;20.40;7.70;;;;;;;;;;5062158;28;20020;-73
2022/07/02 06:03:54;;;;;;;20.80;7.53;;;;;;;;;;5060556;28;20066;-76
2022/07/02 06:09:04;;;;;;;24.52;7.97;;;;;;;;;;5062302;28;20123;-73
2022/07/02 06:11:30;;;;;;;22.15;8.32;;;;;;;;;;5061625;28;20085;-73
2022/07/02 06:13:57;;;;;;;17.58;7.20;;;;;;;;;;5061797;28;20039;-73
2022/07/02 06:16:23;;;;;;;19.40;7.03;;;;;;;;;;5060405;28;20051;-75
2022/07/02 06:18:49;;;;;;;17.38;6.88;;;;;;;;;;5061728;28;20020;-74
2022/07/02 06:21:15;;;;;;;16.17;6.70;;;;;;;;;;5062040;28;20107;-74
2022/07/02 06:23:41;;;;;;;22.27;7.18;;;;;;;;;;5061692;28;20024;-73
2022/07/02 06:26:07;;;;;;;27.95;7.18;;;;;;;;;;5060697;28;20024;-73
2022/07/02 06:28:33;;;;;;;17.63;6.60;;;;;;;;;;5059871;28;20029;-73
2022/07/02 06:31:00;;;;;;;17.77;6.70;;;;;;;;;;5061457;28;20028;-73
2022/07/02 06:33:26;;;;;;;20.08;6.40;;;;;;;;;;5061764;28;20045;-73
2022/07/02 06:35:52;;;;;;;16.13;6.72;;;;;;;;;;5061695;28;20036;-81
2022/07/02 06:38:18;;;;;;;17.17;6.53;;;;;;;;;;5057910;28;20024;-73
2022/07/02 06:40:44;;;;;;;17.85;5.88;;;;;;;;;;5057543;28;20138;-73
2022/07/02 06:43:10;;;;;;;20.33;6.40;;;;;;;;;;5061766;28;20668;-73
2022/07/02 06:45:36;;;;;;;15.07;6.80;;;;;;;;;;5061987;28;20060;-73
2022/07/02 06:48:03;;;;;;;19.13;6.97;;;;;;;;;;5057443;28;20028;-73
2022/07/02 06:50:29;;;;;;;18.52;7.45;;;;;;;;;;5056914;28;20043;-74
2022/07/02 06:52:55;;;;;;;20.13;8.32;;;;;;;;;;5060188;28;20034;-72
2022/07/02 06:55:21;;;;;;;25.67;7.90;;;;;;;;;;5061634;28;20036;-72
2022/07/02 06:57:49;;;;;;;21.02;7.72;;;;;;;;;;5060009;28;20021;-72
2022/07/02 07:00:15;;;;;;;19.80;7.50;;;;;;;;;;5060619;28;20522;-78
2022/07/02 07:02:43;;;;;;;18.60;7.13;;;;;;;;;;5059039;28;20017;-72
2022/07/02 07:05:09;;;;;;;20.23;7.88;;;;;;;;;;5061264;28;20017;-73
2022/07/02 07:07:36;;;;;;;23.83;8.30;;;;;;;;;;5061649;28;20040;-75
2022/07/02 07:10:03;;;;;;;17.42;8.65;;;;;;;;;;5060960;28;20454;-73
2022/07/02 07:12:29;;;;;;;15.82;7.70;;;;;;;;;;5059076;28;20029;-73
2022/07/02 07:14:59;;;;;;;18.35;8.00;;;;;;;;;;5058709;28;20032;-75
2022/07/02 07:17:25;;;;;;;15.68;7.53;;;;;;;;;;5056065;28;20028;-77
2022/07/02 07:19:51;;;;;;;19.98;7.38;;;;;;;;;;5058236;28;20087;-76
2022/07/02 07:22:17;;;;;;;20.10;7.38;;;;;;;;;;5058780;28;20114;-76
2022/07/02 07:24:43;;;;;;;16.83;7.50;;;;;;;;;;5057922;28;20040;-76
2022/07/02 07:27:09;;;;;;;18.52;6.95;;;;;;;;;;5058606;28;20028;-75
2022/07/02 07:29:35;;;;;;;23.25;7.75;;;;;;;;;;5059021;28;20024;-78
2022/07/02 07:32:02;;;;;;;17.98;6.63;;;;;;;;;;5060594;28;20380;-73
2022/07/02 07:34:28;;;;;;;12.38;5.70;;;;;;;;;;5062837;28;20017;-73
2022/07/02 07:36:55;;;;;;;20.73;6.78;;;;;;;;;;5048120;28;20033;-73
2022/07/02 07:39:21;;;;;;;23.23;7.38;;;;;;;;;;5063568;28;20025;-72
2022/07/02 07:41:48;;;;;;;16.55;6.75;;;;;;;;;;5063299;28;20032;-73
2022/07/02 07:44:14;;;;;;;17.20;6.82;;;;;;;;;;5056844;28;20217;-73
2022/07/02 07:46:40;;;;;;;15.88;6.45;;;;;;;;;;5053189;28;20027;-72
2022/07/02 07:49:06;;;;;;;15.77;6.15;;;;;;;;;;5058523;28;20225;-73
2022/07/02 07:51:32;;;;;;;23.70;6.53;;;;;;;;;;5063596;28;20016;-73
2022/07/02 07:53:58;;;;;;;21.60;6.35;;;;;;;;;;5036670;28;20468;-73
2022/07/02 07:56:24;;;;;;;26.20;7.10;;;;;;;;;;5063314;28;20040;-73
2022/07/02 07:58:51;;;;;;;20.45;5.93;;;;;;;;;;5044186;28;20025;-73
2022/07/02 08:01:17;;;;;;;21.85;6.78;;;;;;;;;;5061247;28;20051;-72
2022/07/02 08:03:43;;;;;;;20.48;5.93;;;;;;;;;;5059114;28;20020;-73
2022/07/02 08:06:09;;;;;;;20.38;7.05;;;;;;;;;;5066418;28;20060;-73
2022/07/02 08:08:36;;;;;;;22.80;6.30;;;;;;;;;;5058848;28;20264;-72
2022/07/02 08:11:03;;;;;;;24.60;6.65;;;;;;;;;;5066410;28;20119;-73
2022/07/02 08:13:29;;;;;;;16.17;6.80;;;;;;;;;;5055260;28;20052;-73
2022/07/02 08:15:55;;;;;;;14.68;7.47;;;;;;;;;;5053982;28;20029;-72
2022/07/02 08:18:21;;;;;;;16.25;7.45;;;;;;;;;;5050616;28;20413;-73
2022/07/02 08:20:48;;;;;;;19.85;8.00;;;;;;;;;;5060458;28;20029;-73
2022/07/02 08:23:14;;;;;;;20.98;8.93;;;;;;;;;;5059075;28;20112;-74
2022/07/02 08:25:40;;;;;;;22.15;10.00;;;;;;;;;;5064864;28;20024;-74
2022/07/02 08:28:06;;;;;;;31.50;11.30;;;;;;;;;;5033239;28;20031;-76
2022/07/02 08:30:33;;;;;;;14.60;8.50;;;;;;;;;;5054441;28;20024;-73
2022/07/02 08:32:59;;;;;;;18.88;8.93;;;;;;;;;;5057889;28;20052;-73
2022/07/02 08:35:25;;;;;;;24.80;10.65;;;;;;;;;;5063784;28;20146;-73
2022/07/02 08:37:52;;;;;;;15.73;10.30;;;;;;;;;;5066005;28;20021;-74
2022/07/02 08:40:22;;;;;;;16.05;10.48;;;;;;;;;;5043054;28;20801;-73
2022/07/02 08:42:50;;;;;;;21.65;11.00;;;;;;;;;;5065986;28;20078;-72
2022/07/02 08:45:16;;;;;;;21.33;10.70;;;;;;;;;;5065540;28;20020;-74
2022/07/02 08:47:43;;;;;;;19.73;10.63;;;;;;;;;;5063431;28;20420;-73
2022/07/02 08:50:09;;;;;;;19.10;10.43;;;;;;;;;;5066415;28;20472;-73
2022/07/02 08:52:39;;;;;;;16.15;11.23;;;;;;;;;;5048383;28;20073;-74
2022/07/02 08:55:05;;;;;;;22.27;10.65;;;;;;;;;;5062783;28;20049;-73
2022/07/02 08:57:32;;;;;;;18.20;10.77;;;;;;;;;;5061979;28;20051;-73
2022/07/02 08:59:58;;;;;;;18.75;12.02;;;;;;;;;;5062401;28;20067;-73
2022/07/02 09:02:26;;;;;;;15.30;11.25;;;;;;;;;;5052745;28;20443;-73
2022/07/02 09:04:53;;;;;;;19.60;10.63;;;;;;;;;;5064380;28;20668;-72
2022/07/02 09:07:19;;;;;;;16.17;10.65;;;;;;;;;;5052007;28;20031;-74
2022/07/02 09:09:45;;;;;;;16.83;10.60;;;;;;;;;;5065170;28;20404;-73
2022/07/02 09:12:13;;;;;;;18.33;10.43;;;;;;;;;;5064679;28;20114;-77
2022/07/02 09:14:39;;;;;;;20.10;9.65;;;;;;;;;;5060802;28;20021;-78
2022/07/02 09:17:10;;;;;;;16.98;10.05;;;;;;;;;;5064655;28;20024;-73
2022/07/02 09:19:36;;;;;;;22.98;10.35;;;;;;;;;;5061838;28;20037;-73
2022/07/02 09:22:03;;;;;;;16.40;9.77;;;;;;;;;;5064896;28;20036;-73
2022/07/02 09:24:43;;;;;;;17.08;10.38;;;;;;;;;;5064088;28;20294;-73
2022/07/02 09:27:10;;;;;;;16.92;9.65;;;;;;;;;;5064789;28;20078;-77
2022/07/02 09:29:42;;;;;;;17.13;9.80;;;;;;;;;;5060485;28;20531;-73
2022/07/02 09:32:09;;;;;;;21.30;10.50;;;;;;;;;;5064260;28;20024;-73
2022/07/02 09:34:35;;;;;;;24.10;10.60;;;;;;;;;;5062765;28;20012;-72
2022/07/02 09:37:11;;;;;;;11.82;8.40;;;;;;;;;;5058260;28;20042;-72
2022/07/02 09:39:37;;;;;;;18.08;9.70;;;;;;;;;;5063762;28;20029;-72
2022/07/02 09:42:04;;;;;;;22.65;10.13;;;;;;;;;;5065155;28;20097;-73
2022/07/02 09:44:30;;;;;;;21.80;10.52;;;;;;;;;;5065464;28;20029;-73
2022/07/02 09:46:56;;;;;;;16.45;9.75;;;;;;;;;;5065073;28;20029;-77
2022/07/02 09:49:22;;;;;;;18.60;11.43;;;;;;;;;;5053974;28;20024;-78
2022/07/02 09:51:49;;;;;;;19.63;9.27;;;;;;;;;;5056322;28;20036;-74
2022/07/02 09:54:19;;;;;;;20.77;9.60;;;;;;;;;;5053109;28;20021;-76
2022/07/02 09:56:55;;;;;;;15.50;8.13;;;;;;;;;;5060208;28;20688;-74
2022/07/02 09:59:21;;;;;;;14.23;8.20;;;;;;;;;;5059709;28;20050;-78
2022/07/02 10:01:47;;;;;;;18.88;7.53;;;;;;;;;;5058479;28;20048;-76
2022/07/02 10:04:14;;;;;;;18.08;7.68;;;;;;;;;;5057556;28;20127;-73
2022/07/02 10:06:44;;;;;;;18.95;7.95;;;;;;;;;;5059238;28;20221;-74
2022/07/02 10:09:11;;;;;;;21.00;7.93;;;;;;;;;;5054588;28;20066;-75
2022/07/02 10:11:37;;;;;;;17.65;6.40;;;;;;;;;;5059535;28;20032;-74
2022/07/02 10:14:04;;;;;;;18.98;6.90;;;;;;;;;;5060526;28;20123;-75
2022/07/02 10:16:31;;;;;;;18.58;6.57;;;;;;;;;;5057833;28;20037;-81
2022/07/02 10:19:00;;;;;;;14.43;6.50;;;;;;;;;;5060207;28;20020;-75
2022/07/02 10:21:28;;;;;;;13.27;6.65;;;;;;;;;;5060329;28;20029;-79
2022/07/02 10:23:54;;;;;;;17.67;6.63;;;;;;;;;;5058898;28;20605;-74
2022/07/02 10:26:21;;;;;;;21.45;6.85;;;;;;;;;;5061320;28;20028;-74
2022/07/02 10:28:47;;;;;;;12.98;6.88;;;;;;;;;;5057022;28;20035;-79
2022/07/02 10:31:20;;;;;;;20.23;6.57;;;;;;;;;;5058641;28;20020;-75
2022/07/02 10:33:55;;;;;;;15.60;7.47;;;;;;;;;;5059197;28;20049;-77
2022/07/02 10:36:22;;;;;;;13.60;6.72;;;;;;;;;;5060267;28;20060;-73
2022/07/02 10:38:56;;;;;;;22.00;8.15;;;;;;;;;;5058709;28;20496;-75
2022/07/02 10:41:41;;;;;;;12.02;6.85;;;;;;;;;;5053782;28;20032;-73
2022/07/02 10:44:09;;;;;;;18.38;7.32;;;;;;;;;;5059803;28;20483;-77
2022/07/02 10:46:36;;;;;;;18.92;8.00;;;;;;;;;;5059867;28;20706;-77
2022/07/02 10:49:05;;;;;;;14.45;7.40;;;;;;;;;;5058415;28;20024;-78
2022/07/02 10:51:35;;;;;;;15.98;7.93;;;;;;;;;;5043623;28;20017;-76
2022/07/02 10:54:03;;;;;;;15.98;8.48;;;;;;;;;;5055732;28;20059;-80
2022/07/02 10:56:29;;;;;;;20.42;7.90;;;;;;;;;;5054087;28;20059;-74
2022/07/02 10:58:56;;;;;;;12.45;6.80;;;;;;;;;;5054079;28;20029;-75
2022/07/02 11:01:25;;;;;;;11.75;7.50;;;;;;;;;;5071357;28;20029;-75
2022/07/02 11:07:16;;;;;;;13.48;7.22;;;;;;;;;;5029315;28;20057;-93
2022/07/02 11:09:57;;;;;;;21.75;8.63;;;;;;;;;;5034963;28;20029;-95
2022/07/02 11:12:42;;;;;;;14.63;7.80;;;;;;;;;;5040540;28;20068;-94
2022/07/02 11:15:25;;;;;;;17.98;8.18;;;;;;;;;;5035330;28;20558;-94
2022/07/02 11:17:52;;;;;;;18.77;7.70;;;;;;;;;;5034733;28;20029;-94
2022/07/02 11:20:26;;;;;;;15.95;7.75;;;;;;;;;;5036350;28;20487;-95
2022/07/02 11:22:55;;;;;;;16.33;7.68;;;;;;;;;;5018289;28;20030;-95
2022/07/02 11:25:24;;;;;;;22.45;7.57;;;;;;;;;;5035141;28;20026;-93
2022/07/02 11:28:23;;;;;;;17.15;7.13;;;;;;;;;;5034998;28;20493;-93
2022/07/02 11:31:04;;;;;;;14.32;7.10;;;;;;;;;;5024359;28;20037;-93
2022/07/02 11:33:33;;;;;;;24.58;8.15;;;;;;;;;;5034796;28;20021;-94
2022/07/02 11:36:15;;;;;;;20.25;7.18;;;;;;;;;;5038586;28;20030;-95
2022/07/02 11:38:45;;;;;;;22.20;7.85;;;;;;;;;;5038391;28;20033;-94
2022/07/02 11:41:24;;;;;;;18.10;7.65;;;;;;;;;;5038542;28;20029;-94
2022/07/02 11:44:14;;;;;;;15.38;7.40;;;;;;;;;;5038455;28;20112;-94
2022/07/02 11:46:42;;;;;;;21.45;7.65;;;;;;;;;;5038575;28;20037;-94
2022/07/02 11:49:16;;;;;;;16.85;8.18;;;;;;;;;;5038555;28;20045;-95
2022/07/02 11:51:45;;;;;;;19.13;7.50;;;;;;;;;;5038995;28;20040;-95
2022/07/02 11:54:22;;;;;;;18.42;8.10;;;;;;;;;;5039105;28;20025;-93
2022/07/02 11:56:56;;;;;;;17.35;7.50;;;;;;;;;;5037984;28;20487;-96
2022/07/02 11:59:23;;;;;;;15.88;7.40;;;;;;;;;;5038060;28;20120;-94
2022/07/02 12:02:04;;;;;;;15.85;7.10;;;;;;;;;;5038388;28;20104;-94
2022/07/02 12:04:33;;;;;;;21.77;7.00;;;;;;;;;;5037699;28;20021;-95
2022/07/02 12:07:04;;;;;;;21.08;7.13;;;;;;;;;;5037474;28;20053;-94
2022/07/02 12:09:33;;;;;;;19.17;6.43;;;;;;;;;;5037903;28;20021;-94
2022/07/02 12:12:14;;;;;;;19.05;6.70;;;;;;;;;;5037637;28;20073;-94
2022/07/02 12:14:45;;;;;;;17.73;6.75;;;;;;;;;;5037855;28;20001;-95
2022/07/02 12:17:12;;;;;;;;;;;;;;;;;;5039170;28;20025;-96
2022/07/02 12:19:46;;;;;;;18.88;7.20;;;;;;;;;;5037487;28;20454;-95
2022/07/02 12:22:23;;;;;;;22.25;7.25;;;;;;;;;;5037280;28;20092;-95
2022/07/02 12:24:52;;;;;;;17.20;7.05;;;;;;;;;;5036982;28;20467;-93
2022/07/02 12:27:23;;;;;;;20.75;6.45;;;;;;;;;;5037863;28;20041;-96
2022/07/02 12:30:05;;;;;;;22.95;6.88;;;;;;;;;;5038058;28;20075;-94
2022/07/02 12:32:53;;;;;;;18.48;6.80;;;;;;;;;;5043105;28;20116;-95
2022/07/02 12:35:32;;;;;;;23.27;7.22;;;;;;;;;;5036706;28;20086;-95
2022/07/02 12:38:04;;;;;;;21.55;7.25;;;;;;;;;;5036841;28;20120;-94
2022/07/02 12:40:33;;;;;;;16.88;6.45;;;;;;;;;;5037514;28;20029;-94
2022/07/02 12:43:06;;;;;;;15.65;6.43;;;;;;;;;;5037915;28;20029;-94
2022/07/02 12:45:38;;;;;;;15.25;6.65;;;;;;;;;;5036885;28;20021;-94
2022/07/02 12:48:16;;;;;;;18.67;6.20;;;;;;;;;;5037546;28;20021;-93
2022/07/02 12:50:44;;;;;;;22.13;6.50;;;;;;;;;;5038178;28;20022;-94
2022/07/02 12:53:33;;;;;;;17.98;5.97;;;;;;;;;;5037366;28;20399;-94
2022/07/02 12:56:16;;;;;;;18.30;5.68;;;;;;;;;;5025621;28;20438;-94
2022/07/02 12:58:45;;;;;;;24.92;6.47;;;;;;;;;;5037083;28;20021;-94
2022/07/02 13:01:13;;;;;;;19.27;7.05;;;;;;;;;;5036664;28;20510;-94
2022/07/02 13:04:02;;;;;;;23.92;6.57;;;;;;;;;;5037254;28;20446;-93
2022/07/02 13:06:36;;;;;;;14.07;6.28;;;;;;;;;;5025133;28;20038;-93
2022/07/02 13:09:04;;;;;;;26.33;6.93;;;;;;;;;;5036976;28;20025;-94
2022/07/02 13:11:33;;;;;;;18.23;6.95;;;;;;;;;;5036759;28;20044;-95
2022/07/02 13:14:15;;;;;;;16.20;6.68;;;;;;;;;;5037098;28;20024;-95
2022/07/02 13:16:45;;;;;;;13.43;6.80;;;;;;;;;;5037657;28;20107;-96
2022/07/02 13:19:13;;;;;;;17.02;5.80;;;;;;;;;;5036962;28;20514;-94
2022/07/02 13:21:52;;;;;;;14.95;5.75;;;;;;;;;;5036806;28;20044;-94
2022/07/02 13:24:26;;;;;;;14.65;6.22;;;;;;;;;;5036567;28;20029;-94
2022/07/02 13:26:55;;;;;;;17.17;6.55;;;;;;;;;;5036530;28;20057;-93
2022/07/02 13:29:23;;;;;;;13.77;5.88;;;;;;;;;;5036832;28;20048;-94
2022/07/02 13:32:06;;;;;;;15.40;6.38;;;;;;;;;;5036467;28;20045;-94
2022/07/02 13:34:33;;;;;;;17.70;6.57;;;;;;;;;;5037348;28;20029;-93
2022/07/02 13:37:12;;;;;;;18.40;7.18;;;;;;;;;;5036467;28;20029;-95
2022/07/02 13:39:43;;;;;;;16.92;6.38;;;;;;;;;;5036467;28;20536;-93
2022/07/02 13:42:12;;;;;;;;;;;;;;;;;;5037356;28;20004;-95
2022/07/02 13:44:44;;;;;;;13.98;5.93;;;;;;;;;;5036681;28;20003;-95
2022/07/02 13:50:13;;;;;;;24.88;6.60;;;;;;;;;;5037887;28;20040;-93
2022/07/02 13:52:52;;;;;;;17.60;5.32;;;;;;;;;;5036687;28;20048;-94
2022/07/02 13:55:26;;;;;;;25.48;7.10;;;;;;;;;;5036382;28;20116;-94
2022/07/02 13:57:55;;;;;;;16.08;6.25;;;;;;;;;;5035971;28;20112;-95
2022/07/02 14:00:32;;;;;;;16.60;6.35;;;;;;;;;;5034797;28;20025;-94
2022/07/02 14:03:03;;;;;;;19.45;6.50;;;;;;;;;;5034519;28;20092;-95
2022/07/02 14:05:42;;;;;;;15.98;5.55;;;;;;;;;;5035284;28;20017;-94
2022/07/02 14:08:15;;;;;;;17.67;6.25;;;;;;;;;;5035467;28;20037;-94
2022/07/02 14:10:42;;;;;;;21.10;6.65;;;;;;;;;;5035715;28;20033;-94
2022/07/02 14:13:12;;;;;;;16.40;5.95;;;;;;;;;;5035807;28;20447;-94
2022/07/02 14:15:46;;;;;;;18.10;6.35;;;;;;;;;;5035448;28;20035;-94
2022/07/02 14:18:15;;;;;;;16.77;6.25;;;;;;;;;;5035815;28;20042;-94
2022/07/02 14:21:03;;;;;;;15.88;6.45;;;;;;;;;;5035985;28;20084;-96
2022/07/02 14:23:42;;;;;;;18.20;5.85;;;;;;;;;;5024168;28;20040;-95
2022/07/02 14:26:13;;;;;;;20.40;6.20;;;;;;;;;;5016615;28;20022;-93
2022/07/02 14:28:42;;;;;;;19.70;6.60;;;;;;;;;;5016752;28;20030;-96
2022/07/02 14:31:24;;;;;;;16.13;6.05;;;;;;;;;;5015931;28;20061;-95
2022/07/02 14:33:53;;;;;;;18.58;7.03;;;;;;;;;;5016599;28;20552;-95
2022/07/02 14:36:22;;;;;;;20.30;6.60;;;;;;;;;;5017000;28;20034;-95
2022/07/02 14:38:52;;;;;;;17.17;6.22;;;;;;;;;;5016928;28;20057;-94
2022/07/02 14:41:32;;;;;;;18.17;6.72;;;;;;;;;;5016464;28;20025;-95
2022/07/02 14:44:06;;;;;;;17.27;6.88;;;;;;;;;;5018809;28;20435;-96
2022/07/02 14:46:32;;;;;;;15.02;5.93;;;;;;;;;;5016251;28;20034;-95
2022/07/02 14:48:59;;;;;;;15.20;5.95;;;;;;;;;;5015657;28;20480;-95